createdAt,value
2022-10-10T00:02:12.776Z,12.71
2022-10-10T00:07:14.134Z,12.65
2022-10-10T00:12:15.378Z,12.58
2022-10-10T00:17:16.637Z,12.53
2022-10-10T00:22:17.881Z,12.53
2022-10-10T00:27:19.122Z,12.57
2022-10-10T00:32:20.405Z,12.58
2022-10-10T00:37:21.666Z,12.68
2022-10-10T00:42:22.974Z,12.62
2022-10-10T00:47:24.232Z,12.57
2022-10-10T00:52:25.604Z,12.47
2022-10-10T00:57:26.998Z,12.54
2022-10-10T01:02:28.258Z,12.40
2022-10-10T01:07:31.581Z,12.33
2022-10-10T01:13:11.150Z,12.27
2022-10-10T01:18:24.785Z,12.31
2022-10-10T01:23:53.854Z,12.27
2022-10-10T01:29:07.330Z,12.15
2022-10-10T01:34:22.719Z,12.32
2022-10-10T01:39:40.508Z,12.12
2022-10-10T01:44:46.265Z,12.09
2022-10-10T01:49:51.069Z,11.99
2022-10-10T01:55:23.496Z,11.86
2022-10-10T02:00:25.809Z,11.87
2022-10-10T02:05:45.262Z,11.79
2022-10-10T02:10:52.308Z,11.90
2022-10-10T02:15:57.234Z,11.78
2022-10-10T02:21:01.316Z,11.73
2022-10-10T02:26:03.364Z,11.63
2022-10-10T02:31:11.083Z,11.52
2022-10-10T02:36:15.685Z,11.54
2022-10-10T02:41:20.770Z,11.48
2022-10-10T02:46:23.351Z,11.48
2022-10-10T02:51:28.541Z,11.41
2022-10-10T02:56:31.556Z,11.39
2022-10-10T03:01:32.824Z,11.45
2022-10-10T03:06:34.126Z,11.44
2022-10-10T03:11:35.408Z,11.52
2022-10-10T03:16:36.734Z,11.57
2022-10-10T03:21:38.092Z,11.56
2022-10-10T03:26:39.418Z,11.50
2022-10-10T03:31:40.653Z,11.36
2022-10-10T03:36:42.087Z,11.31
2022-10-10T03:41:43.408Z,11.33
2022-10-10T03:46:44.677Z,11.23
2022-10-10T03:51:46.003Z,11.29
2022-10-10T03:56:47.270Z,11.55
2022-10-10T04:01:48.540Z,11.58
2022-10-10T04:06:49.806Z,11.35
2022-10-10T04:11:51.070Z,11.27
2022-10-10T04:16:52.316Z,11.23
2022-10-10T04:21:53.587Z,11.26
2022-10-10T04:26:55.501Z,11.28
2022-10-10T04:31:56.855Z,11.46
2022-10-10T04:36:58.136Z,11.38
2022-10-10T04:41:59.406Z,11.40
2022-10-10T04:47:00.669Z,11.54
2022-10-10T04:52:01.933Z,11.53
2022-10-10T04:57:04.010Z,11.63
2022-10-10T05:02:05.414Z,11.49
2022-10-10T05:07:06.683Z,11.46
2022-10-10T05:12:07.997Z,11.41
2022-10-10T05:17:09.214Z,11.35
2022-10-10T05:22:10.464Z,11.48
2022-10-10T05:27:11.784Z,11.33
2022-10-10T05:32:13.114Z,11.20
2022-10-10T05:37:14.761Z,11.14
2022-10-10T05:42:16.089Z,10.92
2022-10-10T05:47:17.514Z,11.01
2022-10-10T05:52:18.772Z,11.00
2022-10-10T05:57:20.019Z,10.99
2022-10-10T06:02:21.327Z,11.11
2022-10-10T06:07:22.605Z,11.19
2022-10-10T06:12:23.837Z,10.91
2022-10-10T06:17:25.078Z,10.99
2022-10-10T06:22:27.266Z,11.19
2022-10-10T06:27:28.570Z,11.22
2022-10-10T06:32:29.781Z,11.32
2022-10-10T06:37:31.258Z,11.28
2022-10-10T06:42:33.085Z,11.41
2022-10-10T06:47:34.441Z,11.62
2022-10-10T06:52:36.829Z,11.55
2022-10-10T06:57:38.149Z,11.62
2022-10-10T07:02:40.793Z,11.78
2022-10-10T07:07:43.379Z,12.01
2022-10-10T07:12:45.270Z,12.17
2022-10-10T07:17:50.494Z,11.98
2022-10-10T07:22:54.966Z,12.06
2022-10-10T07:27:57.004Z,12.13
2022-10-10T07:32:58.329Z,12.28
2022-10-10T07:38:00.393Z,12.50
2022-10-10T07:43:01.695Z,12.48
2022-10-10T07:48:03.636Z,12.54
2022-10-10T07:53:06.126Z,12.70
2022-10-10T07:58:09.307Z,13.12
2022-10-10T08:03:12.291Z,13.27
2022-10-10T08:08:13.820Z,13.19
2022-10-10T08:13:15.167Z,13.44
2022-10-10T08:18:16.545Z,13.77
2022-10-10T08:23:20.588Z,14.04
2022-10-10T08:28:24.557Z,14.43
2022-10-10T08:33:27.456Z,14.69
2022-10-10T08:38:29.009Z,14.98
2022-10-10T08:43:37.963Z,15.28
2022-10-10T08:48:40.826Z,15.71
2022-10-10T08:53:47.662Z,16.23
2022-10-10T08:58:55.386Z,16.70
2022-10-10T09:04:02.220Z,16.99
2022-10-10T09:09:34.136Z,17.29
2022-10-10T09:14:46.511Z,17.55
2022-10-10T09:20:18.146Z,18.17
2022-10-10T09:25:26.841Z,17.81
2022-10-10T09:30:31.191Z,18.05
2022-10-10T09:35:37.240Z,18.12
2022-10-10T09:40:45.572Z,18.43
2022-10-10T09:45:53.916Z,19.28
2022-10-10T09:50:55.457Z,21.82
2022-10-10T09:55:58.638Z,23.74
2022-10-10T10:01:19.888Z,24.48
2022-10-10T10:06:21.262Z,23.82
2022-10-10T10:11:30.742Z,21.96
2022-10-10T10:16:38.437Z,20.60
2022-10-10T10:21:51.570Z,19.89
2022-10-10T10:26:52.880Z,22.49
2022-10-10T10:32:25.145Z,27.50
2022-10-10T10:37:57.336Z,25.40
2022-10-10T10:43:32.498Z,26.23
2022-10-10T10:48:58.285Z,28.02
2022-10-10T10:54:14.776Z,27.68
2022-10-10T11:05:25.050Z,27.33
2022-10-10T11:10:20.223Z,31.38
2022-10-10T11:16:05.593Z,33.85
2022-10-10T11:21:09.160Z,34.51
2022-10-10T11:26:17.731Z,35.84
2022-10-10T11:31:43.547Z,36.69
2022-10-10T11:36:46.472Z,38.45
2022-10-10T11:41:56.364Z,38.84
2022-10-10T11:47:14.170Z,40.04
2022-10-10T11:52:35.040Z,39.98
2022-10-10T11:57:43.262Z,39.11
2022-10-10T12:02:46.765Z,38.64
2022-10-10T12:07:53.921Z,37.86
2022-10-10T12:13:01.102Z,37.90
2022-10-10T12:18:02.842Z,37.19
2022-10-10T12:23:29.872Z,38.28
2022-10-10T12:28:58.190Z,40.89
2022-10-10T12:34:06.516Z,40.69
2022-10-10T12:39:10.861Z,40.81
2022-10-10T12:44:15.067Z,41.76
2022-10-10T12:49:24.644Z,41.10
2022-10-10T12:54:31.582Z,41.87
2022-10-10T12:59:35.911Z,42.09
2022-10-10T13:04:42.171Z,41.51
2022-10-10T13:09:47.016Z,41.89
2022-10-10T13:14:48.382Z,38.28
2022-10-10T13:19:50.695Z,38.19
2022-10-10T13:24:53.022Z,37.93
2022-10-10T13:29:55.645Z,39.29
2022-10-10T13:35:04.226Z,40.42
2022-10-10T13:40:06.252Z,34.58
2022-10-10T13:45:27.858Z,33.93
2022-10-10T13:50:56.464Z,34.53
2022-10-10T13:56:00.003Z,34.09
2022-10-10T14:01:04.094Z,37.15
2022-10-10T14:06:07.712Z,38.61
2022-10-10T14:11:17.633Z,39.33
2022-10-10T14:16:18.819Z,37.26
2022-10-10T14:21:20.410Z,31.72
2022-10-10T14:26:21.913Z,30.72
2022-10-10T14:31:23.265Z,29.08
2022-10-10T14:36:25.260Z,27.21
2022-10-10T14:41:26.708Z,25.67
2022-10-10T14:46:28.087Z,24.91
2022-10-10T14:51:34.460Z,24.57
2022-10-10T14:57:07.062Z,24.23
2022-10-10T15:01:57.898Z,23.74
2022-10-10T15:07:12.797Z,23.02
2022-10-10T15:12:15.142Z,22.64
2022-10-10T15:17:16.522Z,22.40
2022-10-10T15:22:18.029Z,22.14
2022-10-10T15:27:22.240Z,21.98
2022-10-10T15:32:23.663Z,21.86
2022-10-10T15:37:26.891Z,21.61
2022-10-10T15:42:28.104Z,21.59
2022-10-10T15:47:29.429Z,21.50
2022-10-10T15:52:30.794Z,21.36
2022-10-10T15:57:32.479Z,21.28
2022-10-10T16:02:33.802Z,21.16
2022-10-10T16:07:42.198Z,21.01
2022-10-10T16:12:45.554Z,20.86
2022-10-10T16:17:46.910Z,20.63
2022-10-10T16:22:48.162Z,20.43
2022-10-10T16:27:49.476Z,20.27
2022-10-10T16:32:50.972Z,20.12
2022-10-10T16:37:52.291Z,19.92
2022-10-10T16:42:53.529Z,19.81
2022-10-10T16:47:54.793Z,19.62
2022-10-10T16:52:56.175Z,19.55
2022-10-10T16:57:59.117Z,19.47
2022-10-10T17:03:00.870Z,19.38
2022-10-10T17:08:02.105Z,19.32
2022-10-10T17:13:04.024Z,19.26
2022-10-10T17:18:09.639Z,19.24
2022-10-10T17:23:12.200Z,19.18
2022-10-10T17:28:14.774Z,19.22
2022-10-10T17:33:18.061Z,19.17
2022-10-10T17:38:38.676Z,19.19
2022-10-10T17:43:41.037Z,19.11
2022-10-10T17:48:42.376Z,19.16
2022-10-10T17:53:44.464Z,18.97
2022-10-10T17:58:47.231Z,18.92
2022-10-10T18:03:48.620Z,18.72
2022-10-10T18:08:51.597Z,18.53
2022-10-10T18:13:53.762Z,18.41
2022-10-10T18:18:55.529Z,18.34
2022-10-10T18:23:56.885Z,18.28
2022-10-10T18:28:58.609Z,18.33
2022-10-10T18:34:01.635Z,18.36
2022-10-10T18:39:06.559Z,17.97
2022-10-10T18:44:11.610Z,17.89
2022-10-10T18:49:14.398Z,17.96
2022-10-10T18:54:18.121Z,18.01
2022-10-10T18:59:23.565Z,18.05
2022-10-10T19:04:27.751Z,17.99
2022-10-10T19:09:36.528Z,17.93
2022-10-10T19:19:56.964Z,17.83
2022-10-10T19:24:58.475Z,17.79
2022-10-10T19:30:07.667Z,17.77
2022-10-10T19:35:12.155Z,17.69
2022-10-10T19:40:13.611Z,17.60
2022-10-10T19:45:14.998Z,17.66
2022-10-10T19:50:17.392Z,17.69
2022-10-10T19:55:20.012Z,17.69
2022-10-10T20:05:47.793Z,17.55
2022-10-10T20:10:51.589Z,17.47
2022-10-10T20:15:52.862Z,17.45
2022-10-10T20:20:54.316Z,17.45
2022-10-10T20:25:57.060Z,17.42
2022-10-10T20:30:58.475Z,17.47
2022-10-10T20:36:02.964Z,17.46
2022-10-10T20:41:06.860Z,17.33
2022-10-10T20:46:10.735Z,17.25
2022-10-10T20:51:12.588Z,17.21
2022-10-10T20:56:13.872Z,17.16
2022-10-10T21:01:17.845Z,17.13
2022-10-10T21:06:32.419Z,17.09
2022-10-10T21:11:34.621Z,17.14
2022-10-10T21:16:39.430Z,17.03
2022-10-10T21:21:40.839Z,17.05
2022-10-10T21:26:42.576Z,17.01
2022-10-10T21:31:43.913Z,17.01
2022-10-10T21:36:46.490Z,16.99
2022-10-10T21:41:47.737Z,17.04
2022-10-10T21:46:49.778Z,17.06
2022-10-10T21:51:52.378Z,16.99
2022-10-10T21:56:53.694Z,16.98
2022-10-10T22:01:55.124Z,16.90
2022-10-10T22:06:56.374Z,16.91
2022-10-10T22:11:57.650Z,16.89
2022-10-10T22:16:58.983Z,16.88
2022-10-10T22:22:00.416Z,16.75
2022-10-10T22:27:01.677Z,16.79
2022-10-10T22:32:02.960Z,16.81
2022-10-10T22:37:04.250Z,16.77
2022-10-10T22:42:05.697Z,16.74
2022-10-10T22:47:07.040Z,16.70
2022-10-10T22:52:09.441Z,16.70
2022-10-10T22:57:10.976Z,16.57
2022-10-10T23:02:12.260Z,16.39
2022-10-10T23:07:15.489Z,16.42
2022-10-10T23:12:16.756Z,16.40
2022-10-10T23:17:18.112Z,16.42
2022-10-10T23:22:19.421Z,16.41
2022-10-10T23:27:20.693Z,16.28
2022-10-10T23:32:23.333Z,16.23
2022-10-10T23:37:25.419Z,16.07
2022-10-10T23:42:26.667Z,16.02
2022-10-10T23:47:27.934Z,15.97
2022-10-10T23:52:29.214Z,15.92
2022-10-10T23:57:31.377Z,15.86
